Live aus Altenrhein
LIVE
LSZR 182020Z AUTO VRB03KT 5000 NCD 09/09 Q1016
Zeitraffer heute
2017-10-18 00:14:53
LSZR 172150Z AUTO 12002KT 9999 NCD 10/08 Q1020
Zeitraffer gestern
2017-10-17 00:14:56
LSZR 162150Z AUTO VRB02KT CAVOK 09/09 Q1026
Zeitraffer vor 3 Tagen
2017-10-15 00:14:54
LSZR 142150Z AUTO 12001KT CAVOK 10/09 Q1028